sensor_id;sensor_type;location;lat;lon;timestamp;P1;durP1;ratioP1;P2;durP2;ratioP2
62941;SDS011;49042;47.318;19.874;2023-05-29T00:00:52;17.00;;;8.00;;
62941;SDS011;49042;47.318;19.874;2023-05-29T00:03:55;15.80;;;8.18;;
62941;SDS011;49042;47.318;19.874;2023-05-29T00:06:57;16.60;;;7.45;;
62941;SDS011;49042;47.318;19.874;2023-05-29T00:09:58;11.43;;;5.95;;
62941;SDS011;49042;47.318;19.874;2023-05-29T00:13:00;10.52;;;4.87;;
62941;SDS011;49042;47.318;19.874;2023-05-29T00:16:02;6.57;;;4.43;;
62941;SDS011;49042;47.318;19.874;2023-05-29T00:19:05;11.43;;;5.00;;
62941;SDS011;49042;47.318;19.874;2023-05-29T00:22:10;9.85;;;4.75;;
62941;SDS011;49042;47.318;19.874;2023-05-29T00:25:12;13.10;;;4.70;;
62941;SDS011;49042;47.318;19.874;2023-05-29T00:28:13;11.20;;;5.37;;
62941;SDS011;49042;47.318;19.874;2023-05-29T00:31:15;8.48;;;4.90;;
62941;SDS011;49042;47.318;19.874;2023-05-29T00:34:16;8.18;;;5.03;;
62941;SDS011;49042;47.318;19.874;2023-05-29T00:37:18;10.93;;;4.93;;
62941;SDS011;49042;47.318;19.874;2023-05-29T00:40:22;11.32;;;5.20;;
62941;SDS011;49042;47.318;19.874;2023-05-29T00:43:24;11.93;;;4.57;;
62941;SDS011;49042;47.318;19.874;2023-05-29T00:46:26;9.60;;;4.87;;
62941;SDS011;49042;47.318;19.874;2023-05-29T00:49:27;10.90;;;5.72;;
62941;SDS011;49042;47.318;19.874;2023-05-29T00:52:29;7.40;;;4.75;;
62941;SDS011;49042;47.318;19.874;2023-05-29T00:55:31;9.13;;;4.60;;
62941;SDS011;49042;47.318;19.874;2023-05-29T00:58:32;10.00;;;4.47;;
62941;SDS011;49042;47.318;19.874;2023-05-29T01:01:34;10.10;;;4.43;;
62941;SDS011;49042;47.318;19.874;2023-05-29T01:04:37;14.40;;;4.72;;
62941;SDS011;49042;47.318;19.874;2023-05-29T01:07:39;13.85;;;4.20;;
62941;SDS011;49042;47.318;19.874;2023-05-29T01:10:40;7.18;;;4.47;;
62941;SDS011;49042;47.318;19.874;2023-05-29T01:13:44;11.75;;;4.43;;
62941;SDS011;49042;47.318;19.874;2023-05-29T01:16:59;9.52;;;4.90;;
62941;SDS011;49042;47.318;19.874;2023-05-29T01:20:07;7.05;;;4.55;;
62941;SDS011;49042;47.318;19.874;2023-05-29T01:29:33;10.45;;;4.50;;
62941;SDS011;49042;47.318;19.874;2023-05-29T01:32:35;6.15;;;3.90;;
62941;SDS011;49042;47.318;19.874;2023-05-29T01:35:37;9.77;;;4.60;;
62941;SDS011;49042;47.318;19.874;2023-05-29T01:38:39;14.95;;;4.53;;
62941;SDS011;49042;47.318;19.874;2023-05-29T01:41:41;11.60;;;5.22;;
62941;SDS011;49042;47.318;19.874;2023-05-29T01:44:43;14.25;;;5.30;;
62941;SDS011;49042;47.318;19.874;2023-05-29T01:47:45;8.85;;;4.50;;
62941;SDS011;49042;47.318;19.874;2023-05-29T01:50:47;10.20;;;4.60;;
62941;SDS011;49042;47.318;19.874;2023-05-29T01:53:49;9.68;;;4.10;;
62941;SDS011;49042;47.318;19.874;2023-05-29T01:56:50;10.50;;;4.30;;
62941;SDS011;49042;47.318;19.874;2023-05-29T01:59:52;16.62;;;4.37;;
62941;SDS011;49042;47.318;19.874;2023-05-29T02:02:54;11.38;;;4.62;;
62941;SDS011;49042;47.318;19.874;2023-05-29T02:05:56;10.95;;;4.90;;
62941;SDS011;49042;47.318;19.874;2023-05-29T02:08:58;11.57;;;4.75;;
62941;SDS011;49042;47.318;19.874;2023-05-29T02:12:00;7.80;;;4.45;;
62941;SDS011;49042;47.318;19.874;2023-05-29T02:15:03;8.45;;;4.15;;
62941;SDS011;49042;47.318;19.874;2023-05-29T02:18:05;9.23;;;4.20;;
62941;SDS011;49042;47.318;19.874;2023-05-29T02:21:06;7.28;;;4.37;;
62941;SDS011;49042;47.318;19.874;2023-05-29T02:24:08;12.70;;;4.30;;
62941;SDS011;49042;47.318;19.874;2023-05-29T02:27:10;8.00;;;4.45;;
62941;SDS011;49042;47.318;19.874;2023-05-29T02:30:12;9.30;;;4.30;;
62941;SDS011;49042;47.318;19.874;2023-05-29T02:33:13;12.82;;;5.03;;
62941;SDS011;49042;47.318;19.874;2023-05-29T02:36:15;12.82;;;4.93;;
62941;SDS011;49042;47.318;19.874;2023-05-29T02:39:17;8.18;;;5.28;;
62941;SDS011;49042;47.318;19.874;2023-05-29T02:42:19;10.82;;;5.60;;
62941;SDS011;49042;47.318;19.874;2023-05-29T02:45:20;15.02;;;5.70;;
62941;SDS011;49042;47.318;19.874;2023-05-29T02:48:22;22.42;;;5.90;;
62941;SDS011;49042;47.318;19.874;2023-05-29T02:51:24;9.55;;;5.80;;
62941;SDS011;49042;47.318;19.874;2023-05-29T02:54:25;17.30;;;6.12;;
62941;SDS011;49042;47.318;19.874;2023-05-29T02:57:27;12.43;;;5.78;;
62941;SDS011;49042;47.318;19.874;2023-05-29T03:00:29;13.85;;;5.85;;
62941;SDS011;49042;47.318;19.874;2023-05-29T03:03:31;9.95;;;5.40;;
62941;SDS011;49042;47.318;19.874;2023-05-29T03:06:33;12.57;;;6.40;;
62941;SDS011;49042;47.318;19.874;2023-05-29T03:09:34;9.40;;;5.85;;
62941;SDS011;49042;47.318;19.874;2023-05-29T03:12:36;9.90;;;5.45;;
62941;SDS011;49042;47.318;19.874;2023-05-29T03:15:38;11.40;;;5.85;;
62941;SDS011;49042;47.318;19.874;2023-05-29T03:18:39;11.57;;;5.60;;
62941;SDS011;49042;47.318;19.874;2023-05-29T03:21:41;13.48;;;6.40;;
62941;SDS011;49042;47.318;19.874;2023-05-29T03:24:42;9.85;;;6.60;;
62941;SDS011;49042;47.318;19.874;2023-05-29T03:27:44;10.35;;;6.40;;
62941;SDS011;49042;47.318;19.874;2023-05-29T03:30:46;12.00;;;6.12;;
62941;SDS011;49042;47.318;19.874;2023-05-29T03:33:48;9.93;;;6.30;;
62941;SDS011;49042;47.318;19.874;2023-05-29T03:36:49;12.52;;;6.25;;
62941;SDS011;49042;47.318;19.874;2023-05-29T03:39:51;10.80;;;6.20;;
62941;SDS011;49042;47.318;19.874;2023-05-29T03:42:52;16.50;;;6.22;;
62941;SDS011;49042;47.318;19.874;2023-05-29T03:45:54;14.07;;;6.22;;
62941;SDS011;49042;47.318;19.874;2023-05-29T03:48:56;13.77;;;6.32;;
62941;SDS011;49042;47.318;19.874;2023-05-29T03:51:57;9.82;;;5.53;;
62941;SDS011;49042;47.318;19.874;2023-05-29T03:54:59;12.48;;;5.78;;
62941;SDS011;49042;47.318;19.874;2023-05-29T03:58:00;16.15;;;5.80;;
62941;SDS011;49042;47.318;19.874;2023-05-29T04:01:02;10.90;;;5.37;;
62941;SDS011;49042;47.318;19.874;2023-05-29T04:04:04;16.08;;;5.68;;
62941;SDS011;49042;47.318;19.874;2023-05-29T04:07:05;12.10;;;6.40;;
62941;SDS011;49042;47.318;19.874;2023-05-29T04:10:08;12.23;;;5.43;;
62941;SDS011;49042;47.318;19.874;2023-05-29T04:13:10;10.02;;;5.82;;
62941;SDS011;49042;47.318;19.874;2023-05-29T04:16:11;11.48;;;5.22;;
62941;SDS011;49042;47.318;19.874;2023-05-29T04:19:13;9.60;;;5.47;;
62941;SDS011;49042;47.318;19.874;2023-05-29T04:22:14;10.65;;;5.43;;
62941;SDS011;49042;47.318;19.874;2023-05-29T04:25:16;6.78;;;5.20;;
62941;SDS011;49042;47.318;19.874;2023-05-29T04:28:19;9.70;;;5.07;;
62941;SDS011;49042;47.318;19.874;2023-05-29T04:31:25;10.90;;;5.62;;
62941;SDS011;49042;47.318;19.874;2023-05-29T04:34:27;12.13;;;5.90;;
62941;SDS011;49042;47.318;19.874;2023-05-29T04:37:28;17.17;;;5.20;;
62941;SDS011;49042;47.318;19.874;2023-05-29T04:40:31;12.60;;;5.30;;
62941;SDS011;49042;47.318;19.874;2023-05-29T04:43:34;8.32;;;4.47;;
62941;SDS011;49042;47.318;19.874;2023-05-29T04:46:38;7.43;;;4.87;;
62941;SDS011;49042;47.318;19.874;2023-05-29T04:49:40;13.43;;;5.00;;
62941;SDS011;49042;47.318;19.874;2023-05-29T04:52:42;10.13;;;5.05;;
62941;SDS011;49042;47.318;19.874;2023-05-29T04:55:44;12.07;;;4.80;;
62941;SDS011;49042;47.318;19.874;2023-05-29T04:58:46;7.07;;;4.85;;
62941;SDS011;49042;47.318;19.874;2023-05-29T05:01:48;12.15;;;4.80;;
62941;SDS011;49042;47.318;19.874;2023-05-29T05:04:50;17.62;;;5.95;;
62941;SDS011;49042;47.318;19.874;2023-05-29T05:07:52;12.60;;;5.28;;
62941;SDS011;49042;47.318;19.874;2023-05-29T05:10:54;8.95;;;5.00;;
62941;SDS011;49042;47.318;19.874;2023-05-29T05:13:56;13.82;;;4.85;;
62941;SDS011;49042;47.318;19.874;2023-05-29T05:16:57;10.90;;;4.72;;
62941;SDS011;49042;47.318;19.874;2023-05-29T05:19:59;17.05;;;5.20;;
62941;SDS011;49042;47.318;19.874;2023-05-29T05:23:01;7.72;;;4.72;;
62941;SDS011;49042;47.318;19.874;2023-05-29T05:26:02;12.52;;;5.93;;
62941;SDS011;49042;47.318;19.874;2023-05-29T05:29:04;10.13;;;4.82;;
62941;SDS011;49042;47.318;19.874;2023-05-29T05:32:06;15.30;;;5.78;;
62941;SDS011;49042;47.318;19.874;2023-05-29T05:35:08;7.18;;;5.05;;
62941;SDS011;49042;47.318;19.874;2023-05-29T05:38:12;13.45;;;4.90;;
62941;SDS011;49042;47.318;19.874;2023-05-29T05:41:14;13.25;;;5.97;;
62941;SDS011;49042;47.318;19.874;2023-05-29T05:44:15;9.75;;;5.00;;
62941;SDS011;49042;47.318;19.874;2023-05-29T05:47:17;11.90;;;4.28;;
62941;SDS011;49042;47.318;19.874;2023-05-29T05:50:19;6.43;;;3.83;;
62941;SDS011;49042;47.318;19.874;2023-05-29T05:53:20;8.10;;;3.92;;
62941;SDS011;49042;47.318;19.874;2023-05-29T05:56:22;11.65;;;5.12;;
62941;SDS011;49042;47.318;19.874;2023-05-29T05:59:24;11.15;;;5.00;;
62941;SDS011;49042;47.318;19.874;2023-05-29T06:02:25;11.43;;;4.87;;
62941;SDS011;49042;47.318;19.874;2023-05-29T06:05:27;13.55;;;5.12;;
62941;SDS011;49042;47.318;19.874;2023-05-29T06:08:29;18.23;;;6.07;;
62941;SDS011;49042;47.318;19.874;2023-05-29T06:11:31;15.43;;;5.37;;
62941;SDS011;49042;47.318;19.874;2023-05-29T06:14:33;14.05;;;4.47;;
62941;SDS011;49042;47.318;19.874;2023-05-29T06:17:35;9.35;;;4.70;;
62941;SDS011;49042;47.318;19.874;2023-05-29T06:20:36;11.07;;;4.20;;
62941;SDS011;49042;47.318;19.874;2023-05-29T06:23:38;12.37;;;4.50;;
62941;SDS011;49042;47.318;19.874;2023-05-29T06:26:39;9.15;;;4.72;;
62941;SDS011;49042;47.318;19.874;2023-05-29T06:29:42;9.00;;;4.12;;
62941;SDS011;49042;47.318;19.874;2023-05-29T06:32:43;9.82;;;4.30;;
62941;SDS011;49042;47.318;19.874;2023-05-29T06:35:45;9.13;;;4.12;;
62941;SDS011;49042;47.318;19.874;2023-05-29T06:38:47;14.73;;;4.50;;
62941;SDS011;49042;47.318;19.874;2023-05-29T06:41:49;12.40;;;3.90;;
62941;SDS011;49042;47.318;19.874;2023-05-29T06:44:51;7.15;;;4.30;;
62941;SDS011;49042;47.318;19.874;2023-05-29T06:47:52;11.57;;;4.20;;
62941;SDS011;49042;47.318;19.874;2023-05-29T06:50:54;7.25;;;3.60;;
62941;SDS011;49042;47.318;19.874;2023-05-29T06:53:56;10.85;;;3.90;;
62941;SDS011;49042;47.318;19.874;2023-05-29T06:56:57;14.02;;;4.35;;
62941;SDS011;49042;47.318;19.874;2023-05-29T07:00:12;8.65;;;4.30;;
62941;SDS011;49042;47.318;19.874;2023-05-29T07:03:13;9.93;;;3.95;;
62941;SDS011;49042;47.318;19.874;2023-05-29T07:06:18;8.57;;;4.40;;
62941;SDS011;49042;47.318;19.874;2023-05-29T07:09:19;9.45;;;3.92;;
62941;SDS011;49042;47.318;19.874;2023-05-29T07:12:22;7.55;;;3.62;;
62941;SDS011;49042;47.318;19.874;2023-05-29T07:15:24;20.08;;;4.57;;
62941;SDS011;49042;47.318;19.874;2023-05-29T07:18:25;7.90;;;3.83;;
62941;SDS011;49042;47.318;19.874;2023-05-29T07:21:27;12.68;;;4.15;;
62941;SDS011;49042;47.318;19.874;2023-05-29T07:24:28;10.52;;;4.68;;
62941;SDS011;49042;47.318;19.874;2023-05-29T07:27:30;8.70;;;3.83;;
62941;SDS011;49042;47.318;19.874;2023-05-29T07:30:31;9.23;;;3.65;;
62941;SDS011;49042;47.318;19.874;2023-05-29T07:33:33;9.25;;;4.25;;
62941;SDS011;49042;47.318;19.874;2023-05-29T07:36:35;12.95;;;3.72;;
62941;SDS011;49042;47.318;19.874;2023-05-29T07:39:37;8.75;;;3.42;;
62941;SDS011;49042;47.318;19.874;2023-05-29T07:42:38;11.55;;;3.92;;
62941;SDS011;49042;47.318;19.874;2023-05-29T07:45:40;7.07;;;3.67;;
62941;SDS011;49042;47.318;19.874;2023-05-29T07:48:42;11.45;;;4.10;;
62941;SDS011;49042;47.318;19.874;2023-05-29T07:51:44;10.45;;;3.37;;
62941;SDS011;49042;47.318;19.874;2023-05-29T07:54:45;14.02;;;3.95;;
62941;SDS011;49042;47.318;19.874;2023-05-29T07:57:47;13.32;;;3.92;;
62941;SDS011;49042;47.318;19.874;2023-05-29T08:00:50;7.80;;;4.00;;
62941;SDS011;49042;47.318;19.874;2023-05-29T08:03:52;11.85;;;3.90;;
62941;SDS011;49042;47.318;19.874;2023-05-29T08:06:54;6.40;;;3.53;;
62941;SDS011;49042;47.318;19.874;2023-05-29T08:09:56;10.35;;;3.85;;
62941;SDS011;49042;47.318;19.874;2023-05-29T08:12:57;11.88;;;4.62;;
62941;SDS011;49042;47.318;19.874;2023-05-29T08:15:59;15.75;;;4.07;;
62941;SDS011;49042;47.318;19.874;2023-05-29T08:19:01;9.10;;;4.10;;
62941;SDS011;49042;47.318;19.874;2023-05-29T08:22:03;17.95;;;4.25;;
62941;SDS011;49042;47.318;19.874;2023-05-29T08:25:04;12.82;;;4.05;;
62941;SDS011;49042;47.318;19.874;2023-05-29T08:28:06;14.68;;;3.80;;
62941;SDS011;49042;47.318;19.874;2023-05-29T08:31:08;12.73;;;3.87;;
62941;SDS011;49042;47.318;19.874;2023-05-29T08:34:10;13.73;;;3.97;;
62941;SDS011;49042;47.318;19.874;2023-05-29T08:37:12;13.95;;;4.28;;
62941;SDS011;49042;47.318;19.874;2023-05-29T08:40:13;9.27;;;3.50;;
62941;SDS011;49042;47.318;19.874;2023-05-29T08:43:16;10.40;;;3.80;;
62941;SDS011;49042;47.318;19.874;2023-05-29T08:46:19;11.57;;;3.97;;
62941;SDS011;49042;47.318;19.874;2023-05-29T08:49:23;11.12;;;4.28;;
62941;SDS011;49042;47.318;19.874;2023-05-29T08:52:26;12.88;;;4.30;;
62941;SDS011;49042;47.318;19.874;2023-05-29T08:55:28;13.75;;;4.22;;
62941;SDS011;49042;47.318;19.874;2023-05-29T08:58:30;10.60;;;4.10;;
62941;SDS011;49042;47.318;19.874;2023-05-29T09:01:32;8.05;;;3.90;;
62941;SDS011;49042;47.318;19.874;2023-05-29T09:04:34;8.02;;;4.40;;
62941;SDS011;49042;47.318;19.874;2023-05-29T09:07:36;19.48;;;4.43;;
62941;SDS011;49042;47.318;19.874;2023-05-29T09:10:41;8.40;;;4.05;;
62941;SDS011;49042;47.318;19.874;2023-05-29T09:13:45;12.05;;;4.05;;
62941;SDS011;49042;47.318;19.874;2023-05-29T09:16:47;9.25;;;3.87;;
62941;SDS011;49042;47.318;19.874;2023-05-29T09:19:49;6.28;;;4.03;;
62941;SDS011;49042;47.318;19.874;2023-05-29T09:22:58;8.63;;;3.45;;
62941;SDS011;49042;47.318;19.874;2023-05-29T09:26:01;15.20;;;4.12;;
62941;SDS011;49042;47.318;19.874;2023-05-29T09:29:03;14.65;;;4.03;;
62941;SDS011;49042;47.318;19.874;2023-05-29T09:32:07;9.15;;;3.90;;
62941;SDS011;49042;47.318;19.874;2023-05-29T09:35:09;8.68;;;3.62;;
62941;SDS011;49042;47.318;19.874;2023-05-29T09:38:12;9.98;;;3.85;;
62941;SDS011;49042;47.318;19.874;2023-05-29T09:41:33;10.60;;;4.25;;
62941;SDS011;49042;47.318;19.874;2023-05-29T09:44:35;13.32;;;4.32;;
62941;SDS011;49042;47.318;19.874;2023-05-29T09:47:36;13.70;;;4.32;;
62941;SDS011;49042;47.318;19.874;2023-05-29T09:50:40;8.35;;;3.58;;
62941;SDS011;49042;47.318;19.874;2023-05-29T09:53:45;10.32;;;4.25;;
62941;SDS011;49042;47.318;19.874;2023-05-29T09:56:47;8.57;;;3.53;;
62941;SDS011;49042;47.318;19.874;2023-05-29T09:59:49;9.60;;;3.90;;
62941;SDS011;49042;47.318;19.874;2023-05-29T10:02:53;12.37;;;4.05;;
62941;SDS011;49042;47.318;19.874;2023-05-29T10:05:55;13.57;;;4.03;;
62941;SDS011;49042;47.318;19.874;2023-05-29T10:08:59;8.80;;;3.67;;
62941;SDS011;49042;47.318;19.874;2023-05-29T10:12:01;12.00;;;4.55;;
62941;SDS011;49042;47.318;19.874;2023-05-29T10:15:06;12.73;;;4.05;;
62941;SDS011;49042;47.318;19.874;2023-05-29T10:21:13;8.15;;;4.40;;
62941;SDS011;49042;47.318;19.874;2023-05-29T10:24:16;12.23;;;3.75;;
62941;SDS011;49042;47.318;19.874;2023-05-29T10:27:18;10.82;;;4.20;;
62941;SDS011;49042;47.318;19.874;2023-05-29T10:36:47;6.70;;;3.20;;
62941;SDS011;49042;47.318;19.874;2023-05-29T10:39:51;10.82;;;4.50;;
62941;SDS011;49042;47.318;19.874;2023-05-29T10:42:53;7.65;;;3.78;;
62941;SDS011;49042;47.318;19.874;2023-05-29T10:45:59;7.25;;;4.00;;
62941;SDS011;49042;47.318;19.874;2023-05-29T10:49:02;6.60;;;3.80;;
62941;SDS011;49042;47.318;19.874;2023-05-29T10:52:04;18.15;;;4.22;;
62941;SDS011;49042;47.318;19.874;2023-05-29T10:55:06;18.27;;;4.00;;
62941;SDS011;49042;47.318;19.874;2023-05-29T10:58:09;8.15;;;4.03;;
62941;SDS011;49042;47.318;19.874;2023-05-29T11:01:12;15.68;;;4.20;;
62941;SDS011;49042;47.318;19.874;2023-05-29T11:07:32;7.87;;;3.95;;
62941;SDS011;49042;47.318;19.874;2023-05-29T11:13:53;7.10;;;3.78;;
62941;SDS011;49042;47.318;19.874;2023-05-29T11:16:55;10.27;;;4.10;;
62941;SDS011;49042;47.318;19.874;2023-05-29T11:20:00;5.78;;;3.65;;
62941;SDS011;49042;47.318;19.874;2023-05-29T11:23:05;13.35;;;4.12;;
62941;SDS011;49042;47.318;19.874;2023-05-29T11:26:09;13.10;;;4.45;;
62941;SDS011;49042;47.318;19.874;2023-05-29T11:29:11;8.30;;;3.70;;
62941;SDS011;49042;47.318;19.874;2023-05-29T11:32:15;6.55;;;3.70;;
62941;SDS011;49042;47.318;19.874;2023-05-29T11:35:18;9.23;;;4.05;;
62941;SDS011;49042;47.318;19.874;2023-05-29T11:38:20;8.68;;;3.78;;
62941;SDS011;49042;47.318;19.874;2023-05-29T11:41:22;8.93;;;4.15;;
62941;SDS011;49042;47.318;19.874;2023-05-29T11:44:24;10.32;;;3.83;;
62941;SDS011;49042;47.318;19.874;2023-05-29T11:47:26;8.13;;;3.70;;
62941;SDS011;49042;47.318;19.874;2023-05-29T11:50:32;10.15;;;4.50;;
62941;SDS011;49042;47.318;19.874;2023-05-29T11:53:33;18.52;;;4.18;;
62941;SDS011;49042;47.318;19.874;2023-05-29T11:56:35;7.68;;;3.83;;
62941;SDS011;49042;47.318;19.874;2023-05-29T11:59:37;7.82;;;3.70;;
62941;SDS011;49042;47.318;19.874;2023-05-29T12:02:40;6.75;;;3.42;;
62941;SDS011;49042;47.318;19.874;2023-05-29T12:05:48;7.70;;;3.65;;
62941;SDS011;49042;47.318;19.874;2023-05-29T12:11:53;9.07;;;3.90;;
62941;SDS011;49042;47.318;19.874;2023-05-29T12:14:54;11.57;;;4.07;;
62941;SDS011;49042;47.318;19.874;2023-05-29T12:17:56;11.60;;;4.05;;
62941;SDS011;49042;47.318;19.874;2023-05-29T12:21:00;14.30;;;4.37;;
62941;SDS011;49042;47.318;19.874;2023-05-29T12:24:01;14.02;;;4.43;;
62941;SDS011;49042;47.318;19.874;2023-05-29T12:27:15;9.85;;;4.25;;
62941;SDS011;49042;47.318;19.874;2023-05-29T12:33:33;9.18;;;3.80;;
62941;SDS011;49042;47.318;19.874;2023-05-29T12:36:34;13.80;;;3.80;;
62941;SDS011;49042;47.318;19.874;2023-05-29T12:39:36;8.95;;;4.15;;
62941;SDS011;49042;47.318;19.874;2023-05-29T12:42:38;7.75;;;3.70;;
62941;SDS011;49042;47.318;19.874;2023-05-29T12:45:39;11.07;;;4.00;;
62941;SDS011;49042;47.318;19.874;2023-05-29T12:48:41;7.12;;;3.72;;
62941;SDS011;49042;47.318;19.874;2023-05-29T12:51:43;7.00;;;3.67;;
62941;SDS011;49042;47.318;19.874;2023-05-29T12:54:45;5.53;;;3.22;;
62941;SDS011;49042;47.318;19.874;2023-05-29T12:57:47;13.57;;;3.95;;
62941;SDS011;49042;47.318;19.874;2023-05-29T13:00:52;7.10;;;3.42;;
62941;SDS011;49042;47.318;19.874;2023-05-29T13:03:57;8.07;;;3.55;;
62941;SDS011;49042;47.318;19.874;2023-05-29T13:06:59;7.40;;;3.12;;
62941;SDS011;49042;47.318;19.874;2023-05-29T13:10:01;8.77;;;3.45;;
62941;SDS011;49042;47.318;19.874;2023-05-29T13:13:03;7.03;;;3.17;;
62941;SDS011;49042;47.318;19.874;2023-05-29T13:16:05;6.00;;;3.10;;
62941;SDS011;49042;47.318;19.874;2023-05-29T13:19:07;9.15;;;3.50;;
62941;SDS011;49042;47.318;19.874;2023-05-29T13:22:09;8.98;;;3.50;;
62941;SDS011;49042;47.318;19.874;2023-05-29T13:25:12;6.78;;;3.33;;
62941;SDS011;49042;47.318;19.874;2023-05-29T13:28:14;11.80;;;3.87;;
62941;SDS011;49042;47.318;19.874;2023-05-29T13:31:16;9.32;;;3.50;;
62941;SDS011;49042;47.318;19.874;2023-05-29T13:34:17;8.20;;;3.22;;
62941;SDS011;49042;47.318;19.874;2023-05-29T13:37:19;9.15;;;3.72;;
62941;SDS011;49042;47.318;19.874;2023-05-29T13:40:21;5.95;;;3.47;;
62941;SDS011;49042;47.318;19.874;2023-05-29T13:43:22;6.22;;;4.00;;
62941;SDS011;49042;47.318;19.874;2023-05-29T13:46:40;8.68;;;3.85;;
62941;SDS011;49042;47.318;19.874;2023-05-29T13:49:41;10.02;;;3.40;;
62941;SDS011;49042;47.318;19.874;2023-05-29T13:52:43;8.18;;;3.60;;
62941;SDS011;49042;47.318;19.874;2023-05-29T13:55:45;7.80;;;3.97;;
62941;SDS011;49042;47.318;19.874;2023-05-29T13:58:46;5.55;;;3.60;;
62941;SDS011;49042;47.318;19.874;2023-05-29T14:01:48;20.10;;;4.35;;
62941;SDS011;49042;47.318;19.874;2023-05-29T14:04:49;10.68;;;3.47;;
62941;SDS011;49042;47.318;19.874;2023-05-29T14:07:51;9.15;;;4.20;;
62941;SDS011;49042;47.318;19.874;2023-05-29T14:10:53;9.10;;;3.42;;
62941;SDS011;49042;47.318;19.874;2023-05-29T14:13:55;7.20;;;3.90;;
62941;SDS011;49042;47.318;19.874;2023-05-29T14:16:56;10.48;;;3.60;;
62941;SDS011;49042;47.318;19.874;2023-05-29T14:19:58;7.50;;;4.03;;
62941;SDS011;49042;47.318;19.874;2023-05-29T14:23:01;11.82;;;3.58;;
62941;SDS011;49042;47.318;19.874;2023-05-29T14:26:03;7.57;;;3.70;;
62941;SDS011;49042;47.318;19.874;2023-05-29T14:29:05;10.10;;;3.55;;
62941;SDS011;49042;47.318;19.874;2023-05-29T14:32:15;11.35;;;3.97;;
62941;SDS011;49042;47.318;19.874;2023-05-29T14:35:16;9.35;;;3.97;;
62941;SDS011;49042;47.318;19.874;2023-05-29T14:38:18;10.98;;;3.95;;
62941;SDS011;49042;47.318;19.874;2023-05-29T14:41:19;10.93;;;3.50;;
62941;SDS011;49042;47.318;19.874;2023-05-29T14:44:21;6.85;;;3.60;;
62941;SDS011;49042;47.318;19.874;2023-05-29T14:47:23;7.70;;;3.95;;
62941;SDS011;49042;47.318;19.874;2023-05-29T14:50:24;7.15;;;3.47;;
62941;SDS011;49042;47.318;19.874;2023-05-29T14:53:26;7.80;;;4.07;;
62941;SDS011;49042;47.318;19.874;2023-05-29T14:56:28;9.93;;;3.60;;
62941;SDS011;49042;47.318;19.874;2023-05-29T14:59:29;13.68;;;4.37;;
62941;SDS011;49042;47.318;19.874;2023-05-29T15:02:31;8.00;;;3.70;;
62941;SDS011;49042;47.318;19.874;2023-05-29T15:05:33;8.18;;;3.67;;
62941;SDS011;49042;47.318;19.874;2023-05-29T15:08:34;11.52;;;3.85;;
62941;SDS011;49042;47.318;19.874;2023-05-29T15:11:36;8.38;;;3.72;;
62941;SDS011;49042;47.318;19.874;2023-05-29T15:14:37;7.40;;;3.87;;
62941;SDS011;49042;47.318;19.874;2023-05-29T15:17:39;17.45;;;3.65;;
62941;SDS011;49042;47.318;19.874;2023-05-29T15:20:41;7.65;;;3.87;;
62941;SDS011;49042;47.318;19.874;2023-05-29T15:23:42;8.88;;;4.30;;
62941;SDS011;49042;47.318;19.874;2023-05-29T15:26:44;9.00;;;3.67;;
62941;SDS011;49042;47.318;19.874;2023-05-29T15:29:46;8.70;;;3.60;;
62941;SDS011;49042;47.318;19.874;2023-05-29T15:32:48;7.03;;;4.20;;
62941;SDS011;49042;47.318;19.874;2023-05-29T15:35:49;4.05;;;3.58;;
62941;SDS011;49042;47.318;19.874;2023-05-29T15:38:51;8.52;;;3.92;;
62941;SDS011;49042;47.318;19.874;2023-05-29T15:41:52;6.45;;;3.87;;
62941;SDS011;49042;47.318;19.874;2023-05-29T15:44:54;16.15;;;4.10;;
62941;SDS011;49042;47.318;19.874;2023-05-29T15:47:56;7.72;;;3.83;;
62941;SDS011;49042;47.318;19.874;2023-05-29T15:50:57;6.37;;;3.42;;
62941;SDS011;49042;47.318;19.874;2023-05-29T15:53:59;9.27;;;3.97;;
62941;SDS011;49042;47.318;19.874;2023-05-29T15:57:01;6.45;;;3.72;;
62941;SDS011;49042;47.318;19.874;2023-05-29T16:00:03;8.13;;;3.90;;
62941;SDS011;49042;47.318;19.874;2023-05-29T16:03:07;10.05;;;3.85;;
62941;SDS011;49042;47.318;19.874;2023-05-29T16:06:09;8.95;;;3.90;;
62941;SDS011;49042;47.318;19.874;2023-05-29T16:09:11;7.93;;;3.80;;
62941;SDS011;49042;47.318;19.874;2023-05-29T16:12:13;8.88;;;3.72;;
62941;SDS011;49042;47.318;19.874;2023-05-29T16:15:14;7.07;;;3.83;;
62941;SDS011;49042;47.318;19.874;2023-05-29T16:18:16;6.47;;;3.50;;
62941;SDS011;49042;47.318;19.874;2023-05-29T16:21:17;12.55;;;3.60;;
62941;SDS011;49042;47.318;19.874;2023-05-29T16:24:21;4.72;;;3.30;;
62941;SDS011;49042;47.318;19.874;2023-05-29T16:27:23;5.95;;;3.20;;
62941;SDS011;49042;47.318;19.874;2023-05-29T16:30:25;8.27;;;3.55;;
62941;SDS011;49042;47.318;19.874;2023-05-29T16:33:26;7.10;;;3.42;;
62941;SDS011;49042;47.318;19.874;2023-05-29T16:36:28;4.95;;;3.25;;
62941;SDS011;49042;47.318;19.874;2023-05-29T16:39:29;8.30;;;3.90;;
62941;SDS011;49042;47.318;19.874;2023-05-29T16:42:33;9.25;;;3.20;;
62941;SDS011;49042;47.318;19.874;2023-05-29T16:45:35;8.30;;;3.20;;
62941;SDS011;49042;47.318;19.874;2023-05-29T16:48:36;7.45;;;3.45;;
62941;SDS011;49042;47.318;19.874;2023-05-29T16:51:40;8.60;;;3.78;;
62941;SDS011;49042;47.318;19.874;2023-05-29T16:54:42;7.97;;;3.90;;
62941;SDS011;49042;47.318;19.874;2023-05-29T16:57:44;6.22;;;3.70;;
62941;SDS011;49042;47.318;19.874;2023-05-29T17:00:46;8.15;;;3.72;;
62941;SDS011;49042;47.318;19.874;2023-05-29T17:03:48;7.37;;;3.85;;
62941;SDS011;49042;47.318;19.874;2023-05-29T17:06:49;9.38;;;4.25;;
62941;SDS011;49042;47.318;19.874;2023-05-29T17:09:51;7.93;;;4.32;;
62941;SDS011;49042;47.318;19.874;2023-05-29T17:12:53;8.93;;;4.57;;
62941;SDS011;49042;47.318;19.874;2023-05-29T17:15:54;7.85;;;4.68;;
62941;SDS011;49042;47.318;19.874;2023-05-29T17:18:56;8.43;;;4.43;;
62941;SDS011;49042;47.318;19.874;2023-05-29T17:21:58;9.57;;;4.07;;
62941;SDS011;49042;47.318;19.874;2023-05-29T17:25:01;7.70;;;4.30;;
62941;SDS011;49042;47.318;19.874;2023-05-29T17:28:03;6.35;;;3.97;;
62941;SDS011;49042;47.318;19.874;2023-05-29T17:31:05;6.60;;;4.35;;
62941;SDS011;49042;47.318;19.874;2023-05-29T17:34:06;6.93;;;3.85;;
62941;SDS011;49042;47.318;19.874;2023-05-29T17:37:08;12.98;;;4.45;;
62941;SDS011;49042;47.318;19.874;2023-05-29T17:40:10;6.60;;;4.35;;
62941;SDS011;49042;47.318;19.874;2023-05-29T17:43:12;7.30;;;3.78;;
62941;SDS011;49042;47.318;19.874;2023-05-29T17:46:13;13.57;;;4.60;;
62941;SDS011;49042;47.318;19.874;2023-05-29T17:49:20;17.23;;;4.82;;
62941;SDS011;49042;47.318;19.874;2023-05-29T17:52:21;10.93;;;4.20;;
62941;SDS011;49042;47.318;19.874;2023-05-29T17:55:23;12.57;;;4.78;;
62941;SDS011;49042;47.318;19.874;2023-05-29T17:58:25;10.68;;;4.05;;
62941;SDS011;49042;47.318;19.874;2023-05-29T18:01:27;14.07;;;4.12;;
62941;SDS011;49042;47.318;19.874;2023-05-29T18:04:28;9.20;;;4.32;;
62941;SDS011;49042;47.318;19.874;2023-05-29T18:07:30;9.32;;;4.53;;
62941;SDS011;49042;47.318;19.874;2023-05-29T18:10:32;10.88;;;4.40;;
62941;SDS011;49042;47.318;19.874;2023-05-29T18:13:33;15.43;;;4.32;;
62941;SDS011;49042;47.318;19.874;2023-05-29T18:16:35;6.40;;;4.00;;
62941;SDS011;49042;47.318;19.874;2023-05-29T18:19:37;8.35;;;4.20;;
62941;SDS011;49042;47.318;19.874;2023-05-29T18:22:39;11.48;;;3.97;;